KRGK

Red Wing Regional Airport

Red Wing, Minnesota, USA
METAR KRGK 181535Z AUTO 18009KT 10SM CLR 09/M03 A3034 RMK AO2
Observed Flight Rules
Oct-18 @ 15:35 UTC (22 minutes ago) Visual Flight Rules
Wind Visibility Clouds
180° at 9 knots 10 miles
  • Clear skies
Temperatures Readings
Current 9°C / 48°F
Dewpoint -3°C / 27°F
Humidity 43%
Altimeter 30.34" Hg
Pressure 1027 hPa
Elevation 239
METAR KRGK 181535Z AUTO 18009KT 10SM CLR 09/M03 A3034 RMK AO2
Observed Flight Rules
Oct-18 @ 15:35 UTC
(22 minutes ago)
VFR
Wind Visibility
180° at 9 knots 10 miles
Clouds
  • Clear skies
Temperature Dewpoint
9°C / 48°F -3°C / 27°F
Humidity Altimeter Pressure
43% 30.34" Hg 1027 hPa